Time;durP1;ratioP1;P1;durP2;ratioP2;P2;SDS_P1;SDS_P2;PMS_P1;PMS_P2;Temp;Humidity;BMP_temperature;BMP_pressure;BME280_temperature;BME280_humidity;BME280_pressure;Samples;Min_cycle;Max_cycle;Signal;HPM_P1;HPM_P2
2022/01/28 00:01:01;;;;;;;59.38;26.33;;;6.20;67.60;;;;;;5073105;28;20388;-19
2022/01/28 00:03:28;;;;;;;55.58;24.75;;;6.20;67.50;;;;;;5073141;28;20027;-19
2022/01/28 00:05:54;;;;;;;47.95;18.77;;;6.20;67.50;;;;;;5073166;28;20468;-19
2022/01/28 00:08:20;;;;;;;32.88;14.23;;;6.20;67.40;;;;;;5072590;28;20035;-20
2022/01/28 00:10:46;;;;;;;48.55;19.70;;;6.30;67.30;;;;;;5072846;28;20031;-20
2022/01/28 00:39:42;;;;;;;66.18;30.15;;;6.10;67.40;;;;;;5072504;28;20086;-20
2022/01/28 00:42:08;;;;;;;73.07;30.75;;;6.00;67.50;;;;;;5072727;28;20068;-19
2022/01/28 00:44:34;;;;;;;48.78;21.52;;;6.00;67.40;;;;;;5072568;28;20052;-19
2022/01/28 00:47:00;;;;;;;46.72;19.05;;;6.00;67.50;;;;;;5072314;28;20485;-19
2022/01/28 00:49:27;;;;;;;58.03;24.73;;;6.00;67.50;;;;;;5072940;28;20028;-19
2022/01/28 00:51:53;;;;;;;74.03;29.38;;;5.90;67.60;;;;;;5072336;28;20032;-19
2022/01/28 00:54:19;;;;;;;47.70;19.90;;;5.90;67.70;;;;;;5072180;28;20028;-19
2022/01/28 00:56:49;;;;;;;60.15;25.67;;;5.90;67.80;;;;;;5073436;28;20085;-20
2022/01/28 00:59:15;;;;;;;74.25;31.25;;;5.90;67.70;;;;;;5075942;28;20074;-20
2022/01/28 01:01:42;;;;;;;39.80;17.42;;;5.90;67.80;;;;;;5074489;28;20107;-20
2022/01/28 01:04:08;;;;;;;42.47;18.27;;;5.90;67.80;;;;;;5074614;28;20029;-20
2022/01/28 01:06:34;;;;;;;36.22;14.98;;;5.90;67.80;;;;;;5075854;28;20074;-20
2022/01/28 01:09:01;;;;;;;34.45;15.43;;;5.80;67.80;;;;;;5075699;28;20115;-20
2022/01/28 01:11:28;;;;;;;31.77;15.20;;;5.90;67.90;;;;;;5075732;28;20020;-20
2022/01/28 01:13:56;;;;;;;36.40;16.90;;;5.80;67.80;;;;;;5075906;28;20078;-20
2022/01/28 01:16:31;;;;;;;40.47;17.75;;;5.80;67.90;;;;;;5075368;28;20020;-20
2022/01/28 01:21:39;;;;;;;42.03;19.60;;;5.80;68.00;;;;;;5075521;28;20033;-20
2022/01/28 01:24:08;;;;;;;68.47;29.35;;;5.90;68.00;;;;;;5075767;28;20040;-20
2022/01/28 01:26:38;;;;;;;61.70;26.00;;;5.80;68.10;;;;;;5075098;28;20025;-20
2022/01/28 01:29:08;;;;;;;57.38;26.77;;;5.90;68.40;;;;;;5075641;28;20385;-20
2022/01/28 01:31:36;;;;;;;36.58;15.23;;;5.90;68.10;;;;;;5075199;28;20040;-20
2022/01/28 01:36:38;;;;;;;53.22;23.58;;;5.90;68.00;;;;;;5075012;28;20060;-19
2022/01/28 01:39:07;;;;;;;74.30;31.25;;;6.00;67.90;;;;;;5075431;28;20030;-19
2022/01/28 01:41:39;;;;;;;55.00;22.63;;;6.00;67.80;;;;;;5075319;28;20384;-19
2022/01/28 01:44:25;;;;;;;36.25;14.60;;;6.00;67.70;;;;;;5075457;28;20499;-19
2022/01/28 01:52:39;;;;;;;36.00;16.63;;;6.10;67.50;;;;;;5075536;28;20445;-19
2022/01/28 01:55:06;;;;;;;33.30;16.67;;;6.10;67.50;;;;;;5075286;28;20115;-19
2022/01/28 01:57:34;;;;;;;38.55;16.05;;;6.10;67.40;;;;;;5074724;28;20067;-20
2022/01/28 02:00:01;;;;;;;63.78;27.73;;;6.10;67.40;;;;;;5075364;28;20380;-19
2022/01/28 02:02:27;;;;;;;74.60;30.73;;;6.10;67.40;;;;;;5074340;28;20044;-19
2022/01/28 02:04:53;;;;;;;51.20;20.98;;;6.10;67.60;;;;;;5074978;28;20107;-19
2022/01/28 02:07:20;;;;;;;48.67;20.17;;;6.10;67.50;;;;;;5074448;28;20025;-20
2022/01/28 02:09:46;;;;;;;59.90;26.38;;;6.00;67.50;;;;;;5074622;28;20048;-19
2022/01/28 02:12:12;;;;;;;86.55;35.83;;;6.00;67.70;;;;;;5073196;28;20052;-20
2022/01/28 02:14:38;;;;;;;58.15;25.58;;;6.00;67.80;;;;;;5074663;28;20028;-19
2022/01/28 02:17:05;;;;;;;45.17;19.30;;;6.00;67.80;;;;;;5074588;28;20055;-20
2022/01/28 02:19:31;;;;;;;73.80;32.85;;;5.90;67.70;;;;;;5074326;28;20052;-19
2022/01/28 02:21:57;;;;;;;41.80;19.50;;;5.90;67.70;;;;;;5074565;28;20039;-20
2022/01/28 02:24:30;;;;;;;44.65;18.90;;;5.90;67.80;;;;;;5072818;28;20388;-19
2022/01/28 02:26:56;;;;;;;66.63;27.35;;;5.90;67.70;;;;;;5074249;28;20029;-19
2022/01/28 02:29:28;;;;;;;38.67;17.20;;;5.90;67.70;;;;;;5074122;28;20035;-20
2022/01/28 02:31:57;;;;;;;71.78;30.60;;;5.90;67.80;;;;;;5074055;28;20031;-19
2022/01/28 02:34:24;;;;;;;74.28;32.15;;;5.90;67.80;;;;;;5074178;28;20060;-20
2022/01/28 02:36:50;;;;;;;63.22;28.25;;;5.90;67.90;;;;;;5072804;28;20031;-20
2022/01/28 02:39:16;;;;;;;44.72;19.88;;;5.80;68.00;;;;;;5073862;28;20030;-21
2022/01/28 02:41:46;;;;;;;38.28;18.70;;;5.80;68.00;;;;;;5073858;28;20033;-20
2022/01/28 02:44:37;;;;;;;36.35;15.90;;;5.90;68.00;;;;;;5074054;28;20028;-22
2022/01/28 02:47:05;;;;;;;37.38;17.02;;;5.80;68.00;;;;;;5073791;28;20479;-20
2022/01/28 02:49:36;;;;;;;55.92;25.02;;;5.80;68.00;;;;;;5073697;28;20124;-20
2022/01/28 02:52:03;;;;;;;30.92;12.95;;;5.80;68.00;;;;;;5073886;28;20032;-20
2022/01/28 02:54:34;;;;;;;32.30;16.05;;;5.80;68.00;;;;;;5073467;28;20439;-20
2022/01/28 02:57:04;;;;;;;48.15;19.70;;;5.80;68.00;;;;;;5073664;28;20020;-20
2022/01/28 02:59:31;;;;;;;65.60;31.17;;;5.80;68.10;;;;;;5073651;28;20029;-20
2022/01/28 03:01:57;;;;;;;71.72;32.97;;;5.80;68.30;;;;;;5073379;28;20032;-19
2022/01/28 03:04:58;;;;;;;58.95;25.60;;;5.80;68.20;;;;;;5073612;28;20082;-19
2022/01/28 03:07:14;;;;;;;43.55;19.20;;;5.90;68.20;;;;;;5073412;28;20431;-19
2022/01/28 03:10:12;;;;;;;54.67;22.67;;;5.90;68.10;;;;;;5073448;28;20032;-20
2022/01/28 03:12:58;;;;;;;46.72;18.30;;;5.90;68.10;;;;;;5073254;28;20036;-20
2022/01/28 03:15:22;;;;;;;33.92;13.82;;;5.90;68.00;;;;;;5073285;28;20123;-19
2022/01/28 03:18:07;;;;;;;42.38;19.50;;;5.90;67.90;;;;;;5073226;28;20032;-19
2022/01/28 03:20:42;;;;;;;32.53;13.93;;;6.00;67.80;;;;;;5072179;28;20052;-19
2022/01/28 03:23:10;;;;;;;55.75;25.58;;;5.90;67.80;;;;;;5073243;28;20035;-19
2022/01/28 03:25:41;;;;;;;57.35;25.38;;;5.90;67.80;;;;;;5073554;28;20028;-19
2022/01/28 03:28:08;;;;;;;36.22;19.27;;;6.00;67.80;;;;;;5073283;28;20021;-20
2022/01/28 03:30:34;;;;;;;41.17;18.63;;;5.90;67.70;;;;;;5072993;28;20078;-19
2022/01/28 03:33:00;;;;;;;44.00;17.95;;;5.90;67.70;;;;;;5073069;28;20020;-20
2022/01/28 03:35:26;;;;;;;32.40;15.25;;;5.90;67.70;;;;;;5073018;28;20033;-20
2022/01/28 03:37:59;;;;;;;54.53;24.02;;;5.90;67.70;;;;;;5074011;28;20024;-20
2022/01/28 03:40:25;;;;;;;54.40;22.75;;;5.90;67.80;;;;;;5073276;28;20461;-19
2022/01/28 03:42:51;;;;;;;88.95;38.38;;;5.90;67.90;;;;;;5073662;28;20036;-19
2022/01/28 03:45:18;;;;;;;55.25;24.20;;;5.90;67.90;;;;;;5073361;28;20024;-20
2022/01/28 03:47:44;;;;;;;35.15;14.55;;;5.90;67.90;;;;;;5071713;28;20024;-19
2022/01/28 03:50:10;;;;;;;41.20;17.10;;;5.80;68.00;;;;;;5073217;28;20060;-20
2022/01/28 03:52:36;;;;;;;39.15;16.75;;;5.80;68.00;;;;;;5072677;28;20472;-20
2022/01/28 03:55:03;;;;;;;86.22;39.28;;;5.80;68.00;;;;;;5073250;28;20025;-20
2022/01/28 03:57:29;;;;;;;58.47;26.30;;;5.80;68.10;;;;;;5072929;28;20461;-20
2022/01/28 03:59:55;;;;;;;38.60;17.08;;;5.70;68.00;;;;;;5073529;28;20536;-19
2022/01/28 04:02:26;;;;;;;45.20;19.67;;;5.70;68.20;;;;;;5072510;28;20111;-20
2022/01/28 04:12:50;;;;;;;49.25;21.85;;;5.60;68.20;;;;;;5073113;28;20039;-20
2022/01/28 04:15:36;;;;;;;43.20;16.77;;;5.60;68.20;;;;;;5072727;28;20028;-21
2022/01/28 04:18:03;;;;;;;38.13;15.20;;;5.60;68.30;;;;;;5073346;28;20043;-20
2022/01/28 04:20:32;;;;;;;49.80;22.30;;;5.60;68.40;;;;;;5072348;28;20048;-20
2022/01/28 04:22:58;;;;;;;72.82;29.85;;;5.60;68.50;;;;;;5072606;28;20397;-20
2022/01/28 04:25:24;;;;;;;62.33;25.45;;;5.70;68.50;;;;;;5072959;28;20031;-20
2022/01/28 04:27:50;;;;;;;46.10;19.08;;;5.60;68.60;;;;;;5072883;28;20047;-20
2022/01/28 04:30:16;;;;;;;49.80;21.35;;;5.70;68.60;;;;;;5072551;28;20025;-20
2022/01/28 04:32:42;;;;;;;45.92;17.63;;;5.70;68.60;;;;;;5076224;28;20036;-20
2022/01/28 04:35:08;;;;;;;56.63;22.58;;;5.70;68.40;;;;;;5076342;28;20029;-20
2022/01/28 04:38:04;;;;;;;35.22;14.15;;;5.80;68.30;;;;;;5077442;28;20024;-20
2022/01/28 04:40:35;;;;;;;41.40;17.67;;;5.80;68.20;;;;;;5076032;28;20589;-20
2022/01/28 04:43:13;;;;;;;70.70;28.88;;;5.80;68.20;;;;;;5076489;28;20076;-20
2022/01/28 04:48:23;;;;;;;61.80;26.50;;;5.80;68.20;;;;;;5075900;28;20032;-21
2022/01/28 05:23:19;;;;;;;;;;;5.50;68.90;;;;;;5034299;28;19958;-21
2022/01/28 05:25:48;;;;;;;;;;;5.40;68.80;;;;;;5034339;28;19962;-20
2022/01/28 05:28:18;;;;;;;;;;;5.40;69.00;;;;;;5033703;28;19930;-20
2022/01/28 05:30:44;;;;;;;;;;;5.30;69.40;;;;;;5065352;28;19911;-20
2022/01/28 05:33:09;;;;;;;;;;;5.30;69.70;;;;;;5075989;28;20003;-21
2022/01/28 05:35:35;;;;;;;;;;;5.30;69.40;;;;;;5076037;28;19949;-20
2022/01/28 05:38:01;;;;;;;;;;;5.30;69.20;;;;;;5075886;28;20249;-21
2022/01/28 05:40:27;;;;;;;;;;;5.20;69.30;;;;;;5075700;28;19927;-21
2022/01/28 05:42:53;;;;;;;;;;;5.20;69.30;;;;;;5074657;28;19959;-21
2022/01/28 05:45:18;;;;;;;;;;;5.30;69.70;;;;;;5075876;28;19905;-20
2022/01/28 05:47:44;;;;;;;;;;;5.30;69.60;;;;;;5075378;28;20001;-21
2022/01/28 05:50:12;;;;;;;;;;;5.30;69.80;;;;;;5075496;28;19908;-20
2022/01/28 05:52:37;;;;;;;;;;;5.30;69.60;;;;;;5075625;28;19911;-20
2022/01/28 05:55:04;;;;;;;;;;;5.30;69.60;;;;;;5075269;28;19904;-20
2022/01/28 05:57:30;;;;;;;;;;;5.40;69.50;;;;;;5075577;28;19969;-20
2022/01/28 05:59:56;;;;;;;;;;;5.40;69.80;;;;;;5075176;28;20314;-21
2022/01/28 06:02:21;;;;;;;;;;;5.40;69.60;;;;;;5074826;28;19912;-20
2022/01/28 06:04:47;;;;;;;;;;;5.40;69.30;;;;;;5075493;28;19943;-20
2022/01/28 06:07:13;;;;;;;;;;;5.30;69.60;;;;;;5075376;28;20346;-21
2022/01/28 06:09:39;;;;;;;;;;;5.30;69.50;;;;;;5075096;28;19999;-20
2022/01/28 06:12:05;;;;;;;;;;;5.20;69.50;;;;;;5075277;28;19908;-21
2022/01/28 06:14:31;;;;;;;;;;;5.20;69.50;;;;;;5075063;28;20406;-21
2022/01/28 06:16:57;;;;;;;;;;;5.20;69.40;;;;;;5074810;28;19904;-20
2022/01/28 06:19:23;;;;;;;;;;;5.20;69.30;;;;;;5074562;28;19923;-20
2022/01/28 06:21:49;;;;;;;;;;;5.10;69.20;;;;;;5074760;28;19928;-20
2022/01/28 06:24:14;;;;;;;;;;;5.10;69.10;;;;;;5074556;28;19904;-20
2022/01/28 06:26:41;;;;;;;;;;;5.10;69.00;;;;;;5074639;28;20045;-21
2022/01/28 06:29:07;;;;;;;;;;;5.00;69.30;;;;;;5074884;28;19961;-20
2022/01/28 06:31:33;;;;;;;;;;;5.00;69.10;;;;;;5073679;28;20054;-20
2022/01/28 06:33:58;;;;;;;;;;;5.00;69.10;;;;;;5074442;28;19905;-21
2022/01/28 06:36:24;;;;;;;;;;;4.90;69.70;;;;;;5074298;28;19911;-20
2022/01/28 06:38:50;;;;;;;;;;;4.90;69.80;;;;;;5073251;28;19904;-20
2022/01/28 06:41:16;;;;;;;;;;;4.90;70.10;;;;;;5074524;28;20261;-20
2022/01/28 06:43:41;;;;;;;;;;;4.90;70.00;;;;;;5074316;28;19912;-20
2022/01/28 06:46:07;;;;;;;;;;;4.80;69.90;;;;;;5074605;28;19912;-21
2022/01/28 06:48:33;;;;;;;;;;;4.80;69.80;;;;;;5073937;28;20399;-20
2022/01/28 06:50:59;;;;;;;;;;;4.80;70.00;;;;;;5074197;28;19904;-21
2022/01/28 06:53:25;;;;;;;;;;;4.80;69.90;;;;;;5074126;28;19905;-20
2022/01/28 06:55:51;;;;;;;;;;;4.70;70.00;;;;;;5074471;28;19908;-21
2022/01/28 06:58:17;;;;;;;;;;;4.70;69.80;;;;;;5074022;28;19911;-21
2022/01/28 07:00:43;;;;;;;;;;;4.70;70.60;;;;;;5073836;28;19905;-21
2022/01/28 07:03:12;;;;;;;;;;;4.60;71.00;;;;;;5073800;28;19912;-20
2022/01/28 07:05:38;;;;;;;;;;;4.60;70.80;;;;;;5073931;28;19954;-21
2022/01/28 07:08:05;;;;;;;;;;;4.70;70.40;;;;;;5073873;28;19959;-21
2022/01/28 07:10:31;;;;;;;;;;;4.60;70.70;;;;;;5074046;28;19916;-20
2022/01/28 07:12:57;;;;;;;;;;;4.70;70.20;;;;;;5074106;28;20035;-21
2022/01/28 07:15:24;;;;;;;;;;;4.70;70.30;;;;;;5074124;28;20017;-21
2022/01/28 07:18:02;;;;;;;;;;;4.70;70.40;;;;;;5074586;28;19923;-21
2022/01/28 07:20:29;;;;;;;;;;;4.80;70.30;;;;;;5073358;28;19923;-21
2022/01/28 07:22:55;;;;;;;;;;;4.80;70.20;;;;;;5074299;28;20011;-21
2022/01/28 07:25:22;;;;;;;;;;;4.80;69.90;;;;;;5073967;28;19920;-21
2022/01/28 07:27:48;;;;;;;;;;;4.80;69.80;;;;;;5073725;28;20269;-21
2022/01/28 07:30:14;;;;;;;;;;;4.80;69.70;;;;;;5073404;28;19905;-21
2022/01/28 07:32:40;;;;;;;;;;;4.80;69.80;;;;;;5073817;28;20011;-21
2022/01/28 07:35:06;;;;;;;;;;;4.80;70.10;;;;;;5073586;28;19904;-20
2022/01/28 07:37:32;;;;;;;;;;;4.80;70.00;;;;;;5073902;28;19950;-21
2022/01/28 07:39:57;;;;;;;;;;;4.80;69.90;;;;;;5073851;28;19909;-21
2022/01/28 07:42:25;;;;;;;;;;;4.80;70.50;;;;;;5073641;28;20241;-21
2022/01/28 07:44:51;;;;;;;;;;;4.80;70.50;;;;;;5073788;28;19912;-20
2022/01/28 07:47:17;;;;;;;;;;;4.80;71.00;;;;;;5073668;28;20292;-21
2022/01/28 07:49:42;;;;;;;;;;;4.80;70.60;;;;;;5073832;28;20356;-20
2022/01/28 07:52:08;;;;;;;;;;;4.90;70.50;;;;;;5073399;28;20069;-21
2022/01/28 07:54:34;;;;;;;;;;;4.90;70.30;;;;;;5073116;28;19912;-21
2022/01/28 07:57:01;;;;;;;;;;;4.90;69.90;;;;;;5073336;28;19911;-20
2022/01/28 07:59:26;;;;;;;;;;;4.90;70.10;;;;;;5073985;28;19989;-20
2022/01/28 08:01:52;;;;;;;;;;;5.00;70.20;;;;;;5073183;28;19955;-21
2022/01/28 08:04:18;;;;;;;;;;;5.00;70.60;;;;;;5071912;28;19919;-21
2022/01/28 08:06:43;;;;;;;;;;;5.00;70.30;;;;;;5075892;28;20390;-21
2022/01/28 08:09:09;;;;;;;;;;;5.10;70.40;;;;;;5077343;28;20311;-21
2022/01/28 08:11:35;;;;;;;;;;;5.10;70.10;;;;;;5077756;28;19912;-21
2022/01/28 08:14:02;;;;;;;;;;;5.20;69.80;;;;;;5077532;28;19912;-21
2022/01/28 08:16:28;;;;;;;;;;;5.30;69.70;;;;;;5077228;28;19918;-20
2022/01/28 08:18:53;;;;;;;;;;;5.40;70.10;;;;;;5076933;28;19904;-21
2022/01/28 08:21:19;;;;;;;;;;;5.40;69.80;;;;;;5076942;28;20395;-21
2022/01/28 08:23:45;;;;;;;;;;;5.50;69.80;;;;;;5076315;28;19920;-20
2022/01/28 08:26:11;;;;;;;;;;;5.50;69.60;;;;;;5077347;28;19943;-20
2022/01/28 08:28:41;;;;;;;;;;;5.60;69.10;;;;;;5076901;28;19905;-20
2022/01/28 08:31:08;;;;;;;;;;;5.70;68.90;;;;;;5076902;28;19906;-21
2022/01/28 08:33:33;;;;;;;;;;;5.80;68.80;;;;;;5077052;28;19911;-20
2022/01/28 08:36:01;;;;;;;;;;;5.80;68.60;;;;;;5077083;28;20264;-20
2022/01/28 08:38:35;;;;;;;;;;;5.90;68.70;;;;;;5076549;28;19990;-21
2022/01/28 08:41:01;;;;;;;;;;;5.90;68.40;;;;;;5077012;28;19904;-21
2022/01/28 08:43:27;;;;;;;;;;;6.00;67.20;;;;;;5076903;28;19916;-20
2022/01/28 08:45:53;;;;;;;;;;;6.10;67.40;;;;;;5076918;28;20003;-21
2022/01/28 08:48:19;;;;;;;;;;;6.20;67.60;;;;;;5076359;28;19904;-21
2022/01/28 08:50:45;;;;;;;;;;;6.30;67.70;;;;;;5076864;28;20282;-21
2022/01/28 08:53:11;;;;;;;;;;;6.40;67.40;;;;;;5076974;28;19999;-20
2022/01/28 08:55:38;;;;;;;;;;;6.50;67.10;;;;;;5076779;28;19995;-20
2022/01/28 08:58:07;;;;;;;;;;;6.70;66.70;;;;;;5076465;28;19904;-21
2022/01/28 09:00:33;;;;;;;;;;;6.80;66.80;;;;;;5076392;28;19905;-21
2022/01/28 09:02:59;;;;;;;;;;;6.90;66.80;;;;;;5076812;28;20018;-20
2022/01/28 09:05:25;;;;;;;;;;;7.00;66.70;;;;;;5076511;28;19909;-21
2022/01/28 09:07:51;;;;;;;;;;;7.20;65.90;;;;;;5075055;28;19916;-20
2022/01/28 09:10:24;;;;;;;;;;;7.30;65.90;;;;;;5076035;28;20337;-20
2022/01/28 09:15:25;;;;;;;;;;;7.60;65.10;;;;;;5076207;28;19905;-21
2022/01/28 09:17:51;;;;;;;;;;;7.80;65.10;;;;;;5074720;28;19908;-21
2022/01/28 09:20:17;;;;;;;;;;;7.90;62.50;;;;;;5075686;28;19923;-21
2022/01/28 09:22:43;;;;;;;;;;;8.10;64.10;;;;;;5075965;28;20280;-20
2022/01/28 09:25:09;;;;;;;;;;;8.30;64.20;;;;;;5074663;28;19909;-20
2022/01/28 09:27:34;;;;;;;;;;;8.60;64.20;;;;;;5076190;28;19909;-20
2022/01/28 09:30:00;;;;;;;;;;;8.80;63.70;;;;;;5075981;28;19904;-20
2022/01/28 09:32:26;;;;;;;;;;;9.00;63.90;;;;;;5075837;28;19904;-20
2022/01/28 09:34:52;;;;;;;;;;;9.30;62.40;;;;;;5074554;28;19904;-20
2022/01/28 09:37:18;;;;;;;;;;;9.50;62.90;;;;;;5076014;28;20271;-21
2022/01/28 09:39:45;;;;;;;;;;;9.70;61.60;;;;;;5075702;28;19904;-20
2022/01/28 09:42:13;;;;;;;;;;;9.90;60.40;;;;;;5075759;28;20326;-20
2022/01/28 09:44:40;;;;;;;;;;;10.10;60.20;;;;;;5075539;28;19947;-20
2022/01/28 09:47:06;;;;;;;;;;;10.30;59.00;;;;;;5075416;28;19973;-21
2022/01/28 09:49:32;;;;;;;;;;;10.50;58.10;;;;;;5075477;28;19904;-20
2022/01/28 09:51:58;;;;;;;;;;;10.60;57.40;;;;;;5075744;28;19911;-21
2022/01/28 09:54:24;;;;;;;;;;;10.80;57.80;;;;;;5075151;28;20379;-21
2022/01/28 09:56:50;;;;;;;;;;;11.00;57.80;;;;;;5075634;28;19905;-20
2022/01/28 09:59:16;;;;;;;;;;;11.20;57.80;;;;;;5076102;28;20314;-21
2022/01/28 10:01:51;;;;;;;;;;;11.30;56.60;;;;;;5075027;28;19917;-20
2022/01/28 10:04:21;;;;;;;;;;;11.50;55.70;;;;;;5074913;28;19957;-21
2022/01/28 10:06:48;;;;;;;;;;;11.70;54.40;;;;;;5075083;28;20038;-20
2022/01/28 10:09:16;;;;;;;;;;;11.80;55.50;;;;;;5075534;28;20002;-20
2022/01/28 10:11:44;;;;;;;;;;;11.90;54.80;;;;;;5075296;28;19908;-20
2022/01/28 10:14:16;;;;;;;;;;;12.10;56.30;;;;;;5074962;28;19969;-21
2022/01/28 10:16:43;;;;;;;;;;;12.20;53.70;;;;;;5074972;28;19905;-21
2022/01/28 10:19:10;;;;;;;;;;;12.40;54.80;;;;;;5075213;28;20356;-20
2022/01/28 10:21:36;;;;;;;;;;;12.50;53.60;;;;;;5074808;28;20368;-20
2022/01/28 10:24:07;;;;;;;;;;;12.70;53.70;;;;;;5075045;28;19915;-20
2022/01/28 10:26:40;;;;;;;;;;;12.80;49.90;;;;;;5074795;28;19912;-20
2022/01/28 10:29:11;;;;;;;;;;;12.90;53.50;;;;;;5074954;28;19912;-20
2022/01/28 10:31:39;;;;;;;;;;;13.10;54.90;;;;;;5074596;28;19912;-20
2022/01/28 10:34:14;;;;;;;;;;;13.20;53.40;;;;;;5074597;28;20307;-21
2022/01/28 10:36:39;;;;;;;;;;;13.40;55.50;;;;;;5074490;28;19905;-21
2022/01/28 10:39:12;;;;;;;;;;;13.50;52.50;;;;;;5074855;28;20006;-21
2022/01/28 10:41:46;;;;;;;;;;;13.70;52.50;;;;;;5074365;28;19908;-20
2022/01/28 10:44:14;;;;;;;;;;;13.80;52.70;;;;;;5074582;28;19908;-20
2022/01/28 10:46:40;;;;;;;;;;;13.90;51.60;;;;;;5074358;28;19908;-20
2022/01/28 10:49:08;;;;;;;;;;;14.00;49.00;;;;;;5074495;28;19954;-20
2022/01/28 10:51:41;;;;;;;;;;;14.10;49.30;;;;;;5074219;28;19950;-21
2022/01/28 10:54:12;;;;;;;;;;;14.00;46.90;;;;;;5074322;28;19905;-21
2022/01/28 10:56:56;;;;;;;;;;;14.10;48.40;;;;;;5074303;28;20263;-20
2022/01/28 10:59:23;;;;;;;;;;;14.10;51.30;;;;;;5074729;28;19916;-21
2022/01/28 11:01:50;;;;;;;;;;;14.20;49.70;;;;;;5073972;28;19962;-20
2022/01/28 11:04:17;;;;;;;;;;;14.20;48.90;;;;;;5073695;28;20014;-21
2022/01/28 11:06:43;;;;;;;;;;;14.00;46.40;;;;;;5074274;28;19911;-20
2022/01/28 11:09:10;;;;;;;;;;;13.90;47.70;;;;;;5074223;28;19904;-20
2022/01/28 11:11:37;;;;;;;;;;;13.90;47.60;;;;;;5072606;28;19954;-20
2022/01/28 11:14:03;;;;;;;;;;;14.00;47.40;;;;;;5074100;28;20330;-20
2022/01/28 11:16:29;;;;;;;;;;;14.10;47.60;;;;;;5073974;28;19928;-20
2022/01/28 11:18:56;;;;;;;;;;;14.20;48.80;;;;;;5073879;28;20253;-21
2022/01/28 11:21:30;;;;;;;;;;;14.20;46.60;;;;;;5074574;28;19924;-20
2022/01/28 11:24:08;;;;;;;;;;;14.20;46.80;;;;;;5073773;28;19916;-20
2022/01/28 11:26:52;;;;;;;;;;;14.30;46.60;;;;;;5073693;28;19971;-20
2022/01/28 11:29:19;;;;;;;;;;;14.30;47.30;;;;;;5073690;28;19904;-20
2022/01/28 11:31:48;;;;;;;;;;;14.40;46.40;;;;;;5073970;28;20360;-20
2022/01/28 11:34:22;;;;;;;;;;;14.40;46.60;;;;;;5073412;28;19905;-21
2022/01/28 11:36:50;;;;;;;;;;;14.50;46.90;;;;;;5073581;28;20284;-20
2022/01/28 11:39:36;;;;;;;;;;;14.70;47.10;;;;;;5073760;28;20426;-20
2022/01/28 11:42:10;;;;;;;;;;;14.90;47.10;;;;;;5073186;28;19935;-21
2022/01/28 11:44:40;;;;;;;;;;;15.30;48.10;;;;;;5073293;28;19961;-21
2022/01/28 11:47:08;;;;;;;;;;;15.60;45.20;;;;;;5073973;28;20280;-20
2022/01/28 11:49:51;;;;;;;;;;;15.90;46.40;;;;;;5073352;28;20326;-20
2022/01/28 11:52:21;;;;;;;;;;;16.20;43.80;;;;;;5073662;28;19915;-20
2022/01/28 11:54:47;;;;;;;;;;;16.60;44.10;;;;;;5073704;28;19979;-20
2022/01/28 11:57:14;;;;;;;;;;;16.90;43.60;;;;;;5073733;28;19993;-19
2022/01/28 11:59:40;;;;;;;;;;;17.10;43.10;;;;;;5073626;28;19927;-21
2022/01/28 12:02:08;;;;;;;;;;;17.40;44.70;;;;;;5073284;28;20349;-21
2022/01/28 12:04:41;;;;;;;;;;;17.50;40.60;;;;;;5073067;28;20443;-21
2022/01/28 12:07:18;;;;;;;;;;;17.70;41.90;;;;;;5073278;28;19911;-21
2022/01/28 12:09:46;;;;;;;;;;;17.90;40.80;;;;;;5073301;28;19911;-20
2022/01/28 12:12:18;;;;;;;;;;;18.20;44.30;;;;;;5073363;28;19905;-21
2022/01/28 12:15:08;;;;;;;;;;;18.50;42.10;;;;;;5073270;28;20423;-21
2022/01/28 12:17:36;;;;;;;;;;;18.80;41.40;;;;;;5073465;28;19999;-20
2022/01/28 12:20:10;;;;;;;;;;;18.90;38.50;;;;;;5073130;28;19920;-20
2022/01/28 12:22:56;;;;;;;;;;;19.10;38.90;;;;;;5073734;28;20356;-20
2022/01/28 12:25:40;;;;;;;;;;;19.30;37.90;;;;;;5073542;28;19912;-20
2022/01/28 12:28:25;;;;;;;;;;;19.40;38.30;;;;;;5073015;28;19905;-21
2022/01/28 12:31:00;;;;;;;;;;;19.60;39.00;;;;;;5073752;28;19911;-21
2022/01/28 12:33:30;;;;;;;;;;;19.80;40.30;;;;;;5073110;28;20262;-20
2022/01/28 12:35:58;;;;;;;;;;;19.90;37.40;;;;;;5073316;28;19904;-21
2022/01/28 12:38:28;;;;;;;;;;;20.10;38.20;;;;;;5072842;28;19911;-21
2022/01/28 12:40:54;;;;;;;;;;;20.20;36.60;;;;;;5072971;28;20012;-20
2022/01/28 12:43:21;;;;;;;;;;;20.40;37.20;;;;;;5072840;28;20368;-20
2022/01/28 12:46:01;;;;;;;;;;;20.60;39.30;;;;;;5073772;28;19908;-21
2022/01/28 12:48:26;;;;;;;;;;;20.80;39.30;;;;;;5072573;28;20011;-20
2022/01/28 12:50:53;;;;;;;;;;;20.80;36.90;;;;;;5073207;28;19995;-20
2022/01/28 12:53:26;;;;;;;;;;;20.70;36.30;;;;;;5076264;28;19991;-20
2022/01/28 12:55:52;;;;;;;;;;;20.50;36.10;;;;;;5076827;28;19908;-20
2022/01/28 12:58:31;;;;;;;;;;;20.30;36.20;;;;;;5076343;28;20268;-20
2022/01/28 13:01:07;;;;;;;;;;;20.30;37.00;;;;;;5077563;28;20003;-21
2022/01/28 13:03:38;;;;;;;;;;;20.40;37.30;;;;;;5076467;28;19962;-20
2022/01/28 13:06:26;;;;;;;;;;;20.30;35.90;;;;;;5076573;28;19908;-20
2022/01/28 13:08:52;;;;;;;;;;;20.40;36.80;;;;;;5076559;28;19999;-20
2022/01/28 13:11:18;;;;;;;;;;;20.50;36.70;;;;;;5076267;28;19904;-21
2022/01/28 13:13:48;;;;;;;;;;;20.70;38.00;;;;;;5076236;28;19912;-20
2022/01/28 13:16:13;;;;;;;;;;;20.80;38.10;;;;;;5076070;28;19954;-22
2022/01/28 13:18:54;;;;;;;;;;;21.00;37.30;;;;;;5076091;28;19908;-20
2022/01/28 13:21:20;;;;;;;;;;;21.20;35.30;;;;;;5076421;28;19942;-21
2022/01/28 13:23:46;;;;;;;;;;;21.40;35.50;;;;;;5076057;28;19912;-20
2022/01/28 13:26:11;;;;;;;;;;;21.50;34.90;;;;;;5075857;28;19999;-21
2022/01/28 13:28:37;;;;;;;;;;;21.60;37.40;;;;;;5076398;28;20254;-20
2022/01/28 13:31:03;;;;;;;;;;;21.40;33.20;;;;;;5075902;28;20279;-21
2022/01/28 13:33:29;;;;;;;;;;;21.40;35.00;;;;;;5075751;28;19904;-20
2022/01/28 13:35:56;;;;;;;;;;;21.30;34.30;;;;;;5076183;28;19911;-21
2022/01/28 13:38:22;;;;;;;;;;;21.10;35.30;;;;;;5076074;28;19915;-21
2022/01/28 13:40:47;;;;;;;;;;;20.90;36.00;;;;;;5075648;28;19908;-21
2022/01/28 13:43:17;;;;;;;;;;;20.60;36.10;;;;;;5075986;28;19915;-21
2022/01/28 13:45:53;;;;;;;;;;;20.50;36.70;;;;;;5075878;28;19916;-20
2022/01/28 13:48:39;;;;;;;;;;;20.40;37.00;;;;;;5075294;28;19904;-21
2022/01/28 13:51:08;;;;;;;;;;;20.40;36.70;;;;;;5075437;28;19940;-20
2022/01/28 13:56:31;;;;;;;;;;;20.40;37.20;;;;;;5075834;28;19950;-20
2022/01/28 13:58:57;;;;;;;;;;;20.60;37.80;;;;;;5076191;28;19951;-20
2022/01/28 14:01:23;;;;;;;;;;;20.80;35.60;;;;;;5075459;28;20017;-21
2022/01/28 14:03:51;;;;;;;;;;;20.90;35.20;;;;;;5074756;28;19916;-21
2022/01/28 14:06:18;;;;;;;;;;;20.90;35.90;;;;;;5075023;28;19904;-20
2022/01/28 14:08:49;;;;;;;;;;;20.90;34.80;;;;;;5075007;28;19911;-20
2022/01/28 14:11:21;;;;;;;;;;;20.90;35.80;;;;;;5075102;28;19939;-20
2022/01/28 14:14:07;;;;;;;;;;;21.00;36.10;;;;;;5075317;28;19908;-20
2022/01/28 14:16:34;;;;;;;;;;;21.00;35.00;;;;;;5075030;28;20345;-20
2022/01/28 14:18:59;;;;;;;;;;;21.20;34.80;;;;;;5074585;28;19905;-21
2022/01/28 14:21:25;;;;;;;;;;;21.20;36.10;;;;;;5075143;28;19909;-20
2022/01/28 14:23:51;;;;;;;;;;;21.30;36.00;;;;;;5075119;28;20376;-21
2022/01/28 14:26:17;;;;;;;;;;;21.40;36.10;;;;;;5074707;28;19952;-21
2022/01/28 14:29:20;;;;;;;;;;;21.40;35.00;;;;;;5074696;28;20328;-20
2022/01/28 14:31:44;;;;;;;;;;;21.50;35.60;;;;;;5074522;28;19905;-21
2022/01/28 14:34:09;;;;;;;;;;;21.40;35.10;;;;;;5074460;28;19911;-20
2022/01/28 14:36:40;;;;;;;;;;;21.40;34.80;;;;;;5074769;28;19908;-20
2022/01/28 14:39:07;;;;;;;;;;;21.40;36.50;;;;;;5074890;28;20011;-20
2022/01/28 14:41:33;;;;;;;;;;;21.40;35.80;;;;;;5074409;28;20003;-20
2022/01/28 14:43:59;;;;;;;;;;;21.40;35.60;;;;;;5074736;28;19912;-21
2022/01/28 14:46:25;;;;;;;;;;;21.30;35.90;;;;;;5074178;28;20329;-20
2022/01/28 14:48:51;;;;;;;;;;;21.30;36.20;;;;;;5074218;28;20332;-21
2022/01/28 14:51:17;;;;;;;;;;;21.20;35.40;;;;;;5074471;28;19999;-21
2022/01/28 14:53:43;;;;;;;;;;;21.10;34.80;;;;;;5074236;28;19979;-20
2022/01/28 14:56:08;;;;;;;;;;;21.00;35.80;;;;;;5074182;28;19909;-20
2022/01/28 14:58:34;;;;;;;;;;;20.90;35.50;;;;;;5074041;28;19942;-20
2022/01/28 15:01:00;;;;;;;;;;;20.90;36.00;;;;;;5072849;28;19904;-20
2022/01/28 15:03:26;;;;;;;;;;;20.80;34.60;;;;;;5074176;28;20253;-21
2022/01/28 15:05:51;;;;;;;;;;;20.70;35.00;;;;;;5074004;28;20433;-21
2022/01/28 15:08:25;;;;;;;;;;;20.60;35.60;;;;;;5074060;28;19958;-21
2022/01/28 15:10:56;;;;;;;;;;;20.40;35.80;;;;;;5074304;28;19904;-21
2022/01/28 15:13:22;;;;;;;;;;;20.20;36.50;;;;;;5074237;28;19948;-20
2022/01/28 15:15:49;;;;;;;;;;;19.90;37.40;;;;;;5072946;28;19904;-21
2022/01/28 15:18:16;;;;;;;;;;;19.60;37.80;;;;;;5073971;28;19905;-21
2022/01/28 15:20:42;;;;;;;;;;;19.30;37.90;;;;;;5073553;28;19931;-18
2022/01/28 15:23:08;;;;;;;;;;;18.80;37.80;;;;;;5072552;28;19908;-21